Terminal Aerodrome Forecast
Issued by NWS Duluth, MN

Home | Current Version | Previous Version | Text Only | Print | Product List | Glossary On
Versions: 1 2 3 4 5 6 7 8 9 10 11 12 13 14 15 16 17 18 19 20 21 22 23 24 25
185
FTUS43 KDLH 212332 CCA
TAFDLH
TAF COR
KDLH 212332Z 2200/2224 12007KT P6SM VCTS SCT050CB SCT120
      TEMPO 2200/2202 1SM -TSRA BR BKN025CB OVC090
     FM220200 04005KT P6SM VCSH BKN025
     FM220600 31004KT P6SM SCT070
     FM221400 31012G18KT P6SM SCT250
     FM221700 30015G24KT P6SM SCT250=

USA.gov is the U.S. government's official web portal to all federal, state and local government web resources and services.